Time;durP1;ratioP1;P1;durP2;ratioP2;P2;SDS_P1;SDS_P2;PMS_P1;PMS_P2;Temp;Humidity;BMP_temperature;BMP_pressure;BME280_temperature;BME280_humidity;BME280_pressure;Samples;Min_cycle;Max_cycle;Signal;HPM_P1;HPM_P2
2022/11/17 00:01:22;;;;;;;;;;;9.60;95.50;;;;;;5066011;28;20000;-92
2022/11/17 00:03:48;;;;;;;;;;;9.40;95.30;;;;;;5066025;28;19938;-92
2022/11/17 00:06:15;;;;;;;;;;;9.30;95.20;;;;;;5066347;28;19943;-92
2022/11/17 00:08:40;;;;;;;;;;;9.30;95.40;;;;;;5065905;28;20031;-93
2022/11/17 00:11:06;;;;;;;;;;;9.30;95.60;;;;;;5066492;28;19949;-92
2022/11/17 00:16:17;;;;;;;;;;;9.30;95.40;;;;;;5066194;28;20339;-92
2022/11/17 00:21:27;;;;;;;;;;;9.20;95.60;;;;;;5066331;28;19945;-92
2022/11/17 00:23:56;;;;;;;;;;;9.20;95.70;;;;;;5062632;28;19946;-91
2022/11/17 00:26:22;;;;;;;;;;;9.10;95.50;;;;;;5044628;28;19937;-92
2022/11/17 00:28:52;;;;;;;;;;;9.00;95.60;;;;;;5043000;28;19945;-92
2022/11/17 00:34:04;;;;;;;;;;;8.90;95.90;;;;;;5041343;28;20000;-93
2022/11/17 00:36:40;;;;;;;;;;;8.90;96.10;;;;;;5045763;28;19959;-92
2022/11/17 00:39:07;;;;;;;;;;;8.90;96.20;;;;;;5045742;28;19944;-92
2022/11/17 00:41:33;;;;;;;;;;;8.90;96.30;;;;;;5042112;28;19937;-92
2022/11/17 00:43:58;;;;;;;;;;;8.90;96.40;;;;;;5042729;28;19943;-92
2022/11/17 00:46:24;;;;;;;;;;;8.90;96.40;;;;;;5042421;28;19940;-93
2022/11/17 00:48:49;;;;;;;;;;;9.00;96.60;;;;;;5035272;28;19938;-93
2022/11/17 00:51:15;;;;;;;;;;;9.10;96.60;;;;;;5044277;28;19984;-92
2022/11/17 00:53:40;;;;;;;;;;;9.10;96.70;;;;;;5044495;28;20312;-92
2022/11/17 00:56:06;;;;;;;;;;;9.10;96.70;;;;;;5045775;28;19939;-92
2022/11/17 00:58:34;;;;;;;;;;;9.10;96.70;;;;;;5045806;28;19945;-92
2022/11/17 01:00:59;;;;;;;;;;;9.10;96.70;;;;;;5046011;28;19944;-93
2022/11/17 01:03:25;;;;;;;;;;;9.30;96.90;;;;;;5045476;28;19941;-92
2022/11/17 01:05:50;;;;;;;;;;;9.40;96.90;;;;;;5045012;28;19943;-92
2022/11/17 01:08:16;;;;;;;;;;;9.40;96.80;;;;;;5045850;28;19952;-92
2022/11/17 01:10:42;;;;;;;;;;;9.40;96.80;;;;;;5044795;28;19966;-92
2022/11/17 01:13:07;;;;;;;;;;;9.40;96.60;;;;;;5045429;28;20019;-93
2022/11/17 01:15:33;;;;;;;;;;;9.30;96.60;;;;;;5044991;28;19950;-92
2022/11/17 01:17:58;;;;;;;;;;;9.40;96.80;;;;;;5045024;28;20320;-93
2022/11/17 01:20:24;;;;;;;;;;;9.40;96.70;;;;;;5044857;28;19947;-92
2022/11/17 01:22:49;;;;;;;;;;;9.40;96.70;;;;;;5044937;28;19943;-92
2022/11/17 01:25:15;;;;;;;;;;;9.30;96.50;;;;;;5046014;28;19961;-94
2022/11/17 01:27:40;;;;;;;;;;;9.30;96.50;;;;;;5044806;28;19935;-92
2022/11/17 01:30:06;;;;;;;;;;;9.10;96.40;;;;;;5042971;28;19950;-92
2022/11/17 01:32:32;;;;;;;;;;;9.00;96.50;;;;;;5041641;28;19957;-91
2022/11/17 01:34:57;;;;;;;;;;;9.00;96.70;;;;;;5042339;28;19948;-92
2022/11/17 01:37:23;;;;;;;;;;;8.90;96.80;;;;;;5042411;28;20020;-91
2022/11/17 01:39:49;;;;;;;;;;;8.70;96.70;;;;;;5043360;28;19942;-94
2022/11/17 01:42:16;;;;;;;;;;;8.60;96.90;;;;;;5043078;28;19953;-92
2022/11/17 01:44:48;;;;;;;;;;;8.60;97.00;;;;;;5043309;28;19939;-92
2022/11/17 01:47:19;;;;;;;;;;;8.50;97.10;;;;;;5046094;28;19945;-92
2022/11/17 01:49:45;;;;;;;;;;;8.50;97.20;;;;;;5043893;28;19999;-92
2022/11/17 01:52:11;;;;;;;;;;;8.50;97.30;;;;;;5044893;28;19978;-92
2022/11/17 01:54:39;;;;;;;;;;;8.50;97.30;;;;;;5044847;28;20309;-92
2022/11/17 01:57:20;;;;;;;;;;;8.60;97.40;;;;;;5044727;28;19962;-93
2022/11/17 01:59:48;;;;;;;;;;;8.70;97.40;;;;;;5043962;28;20051;-92
2022/11/17 02:02:13;;;;;;;;;;;8.70;97.40;;;;;;5044433;28;19942;-92
2022/11/17 02:04:49;;;;;;;;;;;8.70;97.40;;;;;;5044395;28;20390;-92
2022/11/17 02:07:14;;;;;;;;;;;8.70;97.40;;;;;;5043756;28;19941;-93
2022/11/17 02:09:41;;;;;;;;;;;8.70;97.40;;;;;;5043587;28;20019;-92
2022/11/17 02:12:07;;;;;;;;;;;8.70;97.40;;;;;;5042581;28;19997;-92
2022/11/17 02:14:34;;;;;;;;;;;8.70;97.50;;;;;;5044753;28;19940;-93
2022/11/17 02:17:00;;;;;;;;;;;8.70;97.40;;;;;;5043396;28;20027;-93
2022/11/17 02:19:27;;;;;;;;;;;8.70;97.50;;;;;;5043409;28;19960;-92
2022/11/17 02:22:04;;;;;;;;;;;8.60;97.50;;;;;;5042902;28;19974;-92
2022/11/17 02:24:39;;;;;;;;;;;8.60;97.40;;;;;;5043600;28;19940;-92
2022/11/17 02:27:19;;;;;;;;;;;8.60;97.50;;;;;;5042528;28;19945;-92
2022/11/17 02:29:45;;;;;;;;;;;8.50;97.40;;;;;;5042310;28;20018;-92
2022/11/17 02:32:28;;;;;;;;;;;8.50;97.50;;;;;;5041991;28;19986;-92
2022/11/17 02:34:58;;;;;;;;;;;8.50;97.60;;;;;;5042982;28;19941;-92
2022/11/17 02:37:32;;;;;;;;;;;8.50;97.60;;;;;;5041309;28;20429;-92
2022/11/17 02:40:09;;;;;;;;;;;8.50;97.60;;;;;;5040429;28;20490;-92
2022/11/17 02:45:24;;;;;;;;;;;8.40;97.60;;;;;;5040665;28;19986;-92
2022/11/17 02:47:52;;;;;;;;;;;8.40;97.60;;;;;;5039829;28;19940;-92
2022/11/17 02:50:19;;;;;;;;;;;8.40;97.60;;;;;;5039833;28;19999;-93
2022/11/17 02:52:45;;;;;;;;;;;8.40;97.70;;;;;;5040263;28;19960;-92
2022/11/17 02:55:11;;;;;;;;;;;8.40;97.70;;;;;;5041139;28;19948;-91
2022/11/17 02:57:38;;;;;;;;;;;8.40;97.70;;;;;;5040201;28;20364;-92
2022/11/17 03:00:06;;;;;;;;;;;8.30;97.70;;;;;;5039835;28;19941;-92
2022/11/17 03:03:01;;;;;;;;;;;8.30;97.80;;;;;;5039744;28;20391;-92
2022/11/17 03:05:29;;;;;;;;;;;8.40;97.80;;;;;;5002565;28;19993;-91
2022/11/17 03:08:09;;;;;;;;;;;8.40;97.80;;;;;;5038383;28;20030;-92
2022/11/17 03:10:41;;;;;;;;;;;8.40;97.90;;;;;;5038648;28;20410;-92
2022/11/17 03:13:25;;;;;;;;;;;8.40;97.90;;;;;;5039739;28;20034;-92
2022/11/17 03:15:55;;;;;;;;;;;8.40;97.90;;;;;;5039021;28;19940;-92
2022/11/17 03:18:21;;;;;;;;;;;8.40;97.90;;;;;;5038606;28;20000;-92
2022/11/17 03:20:52;;;;;;;;;;;8.40;97.90;;;;;;5038611;28;19939;-92
2022/11/17 03:23:21;;;;;;;;;;;8.40;97.90;;;;;;5038507;28;20054;-92
2022/11/17 03:25:50;;;;;;;;;;;8.50;98.00;;;;;;5037740;28;19947;-92
2022/11/17 03:28:18;;;;;;;;;;;8.50;97.90;;;;;;5036892;28;19940;-93
2022/11/17 03:30:45;;;;;;;;;;;8.50;97.90;;;;;;5036962;28;19948;-92
2022/11/17 03:33:16;;;;;;;;;;;8.40;97.90;;;;;;5036756;28;19938;-92
2022/11/17 03:35:45;;;;;;;;;;;8.50;97.90;;;;;;5035229;28;20315;-93
2022/11/17 03:38:12;;;;;;;;;;;8.50;97.90;;;;;;5036407;28;20487;-92
2022/11/17 03:40:43;;;;;;;;;;;8.60;97.90;;;;;;5037021;28;19939;-93
2022/11/17 03:43:11;;;;;;;;;;;8.60;98.00;;;;;;5036626;28;19964;-92
2022/11/17 03:45:39;;;;;;;;;;;8.50;97.90;;;;;;5036951;28;20385;-93
2022/11/17 03:48:08;;;;;;;;;;;8.60;97.90;;;;;;5036659;28;20029;-92
2022/11/17 03:50:35;;;;;;;;;;;8.60;97.90;;;;;;5036602;28;20017;-92
2022/11/17 03:53:01;;;;;;;;;;;8.50;97.80;;;;;;5036730;28;20043;-92
2022/11/17 03:55:31;;;;;;;;;;;8.50;97.90;;;;;;5036657;28;19943;-92
2022/11/17 03:58:02;;;;;;;;;;;8.40;97.80;;;;;;5036953;28;19987;-92
2022/11/17 04:00:27;;;;;;;;;;;8.40;97.80;;;;;;5036879;28;20018;-93
2022/11/17 04:02:54;;;;;;;;;;;8.50;97.90;;;;;;5036653;28;20056;-92
2022/11/17 04:05:20;;;;;;;;;;;8.60;98.00;;;;;;5036734;28;19945;-92
2022/11/17 04:07:46;;;;;;;;;;;8.60;97.80;;;;;;5035781;28;20021;-92
2022/11/17 04:10:16;;;;;;;;;;;8.60;97.80;;;;;;5035650;28;19942;-93
2022/11/17 04:18:10;;;;;;;;;;;8.30;97.60;;;;;;5036706;28;19968;-92
2022/11/17 04:20:36;;;;;;;;;;;8.30;97.60;;;;;;5037188;28;19935;-92
2022/11/17 04:23:06;;;;;;;;;;;8.40;97.70;;;;;;5036434;28;19945;-92
2022/11/17 04:28:38;;;;;;;;;;;8.40;97.70;;;;;;5036388;28;19989;-93
2022/11/17 04:31:06;;;;;;;;;;;8.40;97.70;;;;;;5035735;28;19941;-92
2022/11/17 04:33:32;;;;;;;;;;;8.40;97.70;;;;;;5035553;28;19940;-92
2022/11/17 04:35:58;;;;;;;;;;;8.40;97.60;;;;;;5036127;28;20032;-92
2022/11/17 04:38:23;;;;;;;;;;;8.30;97.60;;;;;;5034372;28;19956;-92
2022/11/17 04:43:33;;;;;;;;;;;8.20;97.60;;;;;;5055533;28;19946;-92
2022/11/17 04:46:01;;;;;;;;;;;8.20;97.50;;;;;;5055206;28;19942;-92
2022/11/17 04:48:27;;;;;;;;;;;8.20;97.60;;;;;;5055275;28;19944;-92
2022/11/17 04:50:53;;;;;;;;;;;8.10;97.50;;;;;;5054979;28;20059;-92
2022/11/17 04:53:19;;;;;;;;;;;8.00;97.40;;;;;;5054759;28;19952;-92
2022/11/17 04:55:44;;;;;;;;;;;7.80;97.30;;;;;;5055155;28;19944;-92
2022/11/17 04:58:10;;;;;;;;;;;7.80;97.30;;;;;;5055259;28;19966;-91
2022/11/17 05:00:35;;;;;;;;;;;7.70;97.30;;;;;;5055718;28;19965;-92
2022/11/17 05:03:01;;;;;;;;;;;7.70;97.40;;;;;;5055480;28;19939;-92
2022/11/17 05:05:26;;;;;;;;;;;7.70;97.30;;;;;;5057333;28;20398;-92
2022/11/17 05:07:52;;;;;;;;;;;7.60;97.30;;;;;;5057473;28;19997;-94
2022/11/17 05:13:20;;;;;;;;;;;7.60;97.40;;;;;;5056806;28;19990;-92
2022/11/17 05:13:21;;;;;;;;;;;7.60;97.40;;;;;;5059611;28;19998;-92
2022/11/17 05:18:31;;;;;;;;;;;7.60;97.50;;;;;;5061470;28;19953;-92
2022/11/17 05:21:03;;;;;;;;;;;7.60;97.50;;;;;;5063756;28;20003;-92
2022/11/17 05:26:13;;;;;;;;;;;7.70;97.60;;;;;;5063416;28;20358;-93
2022/11/17 05:28:38;;;;;;;;;;;7.80;97.60;;;;;;5062385;28;19944;-92
2022/11/17 05:31:04;;;;;;;;;;;7.80;97.50;;;;;;5062021;28;19937;-92
2022/11/17 05:33:30;;;;;;;;;;;7.90;97.70;;;;;;5060257;28;20314;-92
2022/11/17 05:35:55;;;;;;;;;;;7.90;97.70;;;;;;5059287;28;19946;-92
2022/11/17 05:38:21;;;;;;;;;;;7.90;97.60;;;;;;5058457;28;20041;-93
2022/11/17 05:40:46;;;;;;;;;;;7.90;97.70;;;;;;5058504;28;20313;-92
2022/11/17 05:43:12;;;;;;;;;;;7.90;97.70;;;;;;5058089;28;19939;-92
2022/11/17 05:45:37;;;;;;;;;;;8.00;97.70;;;;;;5058253;28;19945;-92
2022/11/17 05:48:03;;;;;;;;;;;8.00;97.60;;;;;;5059642;28;20410;-92
2022/11/17 05:50:28;;;;;;;;;;;7.90;97.60;;;;;;5058991;28;20458;-92
2022/11/17 05:52:54;;;;;;;;;;;7.90;97.50;;;;;;5058429;28;20411;-91
2022/11/17 05:55:19;;;;;;;;;;;7.80;97.50;;;;;;5058113;28;20434;-92
2022/11/17 05:57:45;;;;;;;;;;;7.80;97.50;;;;;;5057382;28;20509;-91
2022/11/17 06:00:11;;;;;;;;;;;7.70;97.50;;;;;;5057442;28;20406;-92
2022/11/17 06:02:40;;;;;;;;;;;7.70;97.60;;;;;;5056996;28;19939;-91
2022/11/17 06:05:06;;;;;;;;;;;7.70;97.60;;;;;;5056786;28;19939;-92
2022/11/17 06:07:33;;;;;;;;;;;7.70;97.70;;;;;;5055287;28;19995;-92
2022/11/17 06:09:59;;;;;;;;;;;7.70;97.70;;;;;;5056618;28;19950;-92
2022/11/17 06:12:25;;;;;;;;;;;7.80;97.80;;;;;;5057031;28;19939;-92
2022/11/17 06:14:50;;;;;;;;;;;7.90;97.80;;;;;;5056703;28;19948;-92
2022/11/17 06:17:27;;;;;;;;;;;7.90;97.90;;;;;;5055996;28;20011;-92
2022/11/17 06:20:07;;;;;;;;;;;7.90;97.90;;;;;;5072232;28;20380;-92
2022/11/17 06:22:33;;;;;;;;;;;7.90;97.90;;;;;;5056945;28;20032;-92
2022/11/17 06:25:00;;;;;;;;;;;7.90;97.90;;;;;;5057207;28;19978;-92
2022/11/17 06:27:28;;;;;;;;;;;8.00;97.90;;;;;;5053824;28;20007;-92
2022/11/17 06:29:54;;;;;;;;;;;8.00;98.00;;;;;;5056476;28;19942;-92
2022/11/17 06:32:20;;;;;;;;;;;8.00;98.00;;;;;;5051784;28;19986;-92
2022/11/17 06:34:47;;;;;;;;;;;8.00;98.00;;;;;;5053153;28;20003;-91
2022/11/17 06:37:13;;;;;;;;;;;8.00;98.00;;;;;;5050924;28;19958;-91
2022/11/17 06:39:38;;;;;;;;;;;8.10;98.00;;;;;;5056043;28;19959;-91
2022/11/17 06:42:04;;;;;;;;;;;8.10;98.00;;;;;;5069413;28;19948;-94
2022/11/17 06:44:30;;;;;;;;;;;8.20;98.10;;;;;;5056332;28;19944;-95
2022/11/17 06:46:55;;;;;;;;;;;8.20;98.10;;;;;;5064442;28;19941;-92
2022/11/17 06:49:21;;;;;;;;;;;8.20;98.10;;;;;;5067441;28;19941;-92
2022/11/17 06:51:46;;;;;;;;;;;8.20;98.10;;;;;;5060931;28;20446;-95
2022/11/17 06:54:13;;;;;;;;;;;8.30;98.10;;;;;;5060091;28;19940;-93
2022/11/17 06:56:39;;;;;;;;;;;8.40;98.10;;;;;;5062007;28;20382;-93
2022/11/17 06:59:04;;;;;;;;;;;8.40;98.10;;;;;;5060960;28;19951;-93
2022/11/17 07:01:30;;;;;;;;;;;8.40;98.10;;;;;;5057764;28;19954;-93
2022/11/17 07:03:55;;;;;;;;;;;8.40;98.10;;;;;;5046407;28;20019;-92
2022/11/17 07:06:21;;;;;;;;;;;8.40;98.00;;;;;;5039374;28;20285;-94
2022/11/17 07:08:47;;;;;;;;;;;8.40;98.00;;;;;;5037647;28;19950;-94
2022/11/17 07:11:13;;;;;;;;;;;8.50;98.10;;;;;;5035218;28;20030;-94
2022/11/17 07:13:39;;;;;;;;;;;8.60;98.00;;;;;;5036030;28;19952;-95
2022/11/17 07:16:06;;;;;;;;;;;8.50;97.90;;;;;;5053875;28;19941;-94
2022/11/17 07:18:32;;;;;;;;;;;8.60;97.90;;;;;;5057678;28;19945;-93
2022/11/17 07:21:05;;;;;;;;;;;8.50;97.60;;;;;;5048986;28;21641;-91
2022/11/17 07:23:31;;;;;;;;;;;8.40;97.80;;;;;;5040274;28;19945;-93
2022/11/17 07:25:57;;;;;;;;;;;8.60;97.80;;;;;;5044345;28;20404;-93
2022/11/17 07:28:22;;;;;;;;;;;8.60;97.80;;;;;;5047981;28;19947;-93
2022/11/17 07:30:48;;;;;;;;;;;8.60;97.70;;;;;;5050445;28;19942;-93
2022/11/17 07:33:13;;;;;;;;;;;8.70;97.80;;;;;;5052299;28;20002;-93
2022/11/17 07:35:39;;;;;;;;;;;8.80;97.80;;;;;;5057572;28;19953;-95
2022/11/17 07:38:05;;;;;;;;;;;8.90;97.90;;;;;;5037291;28;20301;-96
2022/11/17 07:40:31;;;;;;;;;;;9.10;97.90;;;;;;5042906;28;20424;-96
2022/11/17 07:42:56;;;;;;;;;;;9.10;97.80;;;;;;5042497;28;19936;-96
2022/11/17 07:45:22;;;;;;;;;;;9.30;97.80;;;;;;5057056;28;19945;-95
2022/11/17 07:47:52;;;;;;;;;;;9.30;97.60;;;;;;5061503;28;20026;-96
2022/11/17 07:50:17;;;;;;;;;;;9.30;97.40;;;;;;5063865;23;19947;-96
2022/11/17 07:52:43;;;;;;;;;;;9.40;97.00;;;;;;5055152;28;19969;-96
2022/11/17 07:55:08;;;;;;;;;;;9.30;96.60;;;;;;5056078;28;19948;-95
2022/11/17 07:57:34;;;;;;;;;;;9.40;96.30;;;;;;5054471;28;19937;-95
2022/11/17 08:00:00;;;;;;;;;;;9.40;96.00;;;;;;5054546;28;19944;-95
2022/11/17 08:02:27;;;;;;;;;;;9.50;96.20;;;;;;5054083;28;20350;-94
2022/11/17 08:04:52;;;;;;;;;;;9.80;96.20;;;;;;5054714;28;19941;-94
2022/11/17 08:07:18;;;;;;;;;;;9.90;96.10;;;;;;5052137;28;20531;-93
2022/11/17 08:09:43;;;;;;;;;;;10.00;95.90;;;;;;5065329;28;20000;-95
2022/11/17 08:12:09;;;;;;;;;;;9.90;95.50;;;;;;5054826;28;19938;-95
2022/11/17 08:14:34;;;;;;;;;;;9.80;94.70;;;;;;5048650;28;20357;-95
2022/11/17 08:17:00;;;;;;;;;;;9.60;94.50;;;;;;5050725;28;20318;-95
2022/11/17 08:19:26;;;;;;;;;;;9.40;94.60;;;;;;5054091;28;20475;-95
2022/11/17 08:21:51;;;;;;;;;;;9.30;95.10;;;;;;5054093;28;19946;-95
2022/11/17 08:24:17;;;;;;;;;;;9.40;95.40;;;;;;5053754;28;19942;-95
2022/11/17 08:26:43;;;;;;;;;;;9.40;95.50;;;;;;5041506;28;20025;-94
2022/11/17 08:29:08;;;;;;;;;;;9.40;95.40;;;;;;5049282;28;19997;-95
2022/11/17 08:31:34;;;;;;;;;;;9.40;95.60;;;;;;5054480;28;19940;-95
2022/11/17 08:33:59;;;;;;;;;;;9.30;95.60;;;;;;5048900;28;19941;-94
2022/11/17 08:36:25;;;;;;;;;;;9.30;95.80;;;;;;5057104;28;20318;-94
2022/11/17 08:38:50;;;;;;;;;;;9.30;95.90;;;;;;5054451;28;19947;-94
2022/11/17 08:41:17;;;;;;;;;;;9.40;96.10;;;;;;5035488;28;19944;-94
2022/11/17 08:43:43;;;;;;;;;;;9.50;96.00;;;;;;5046507;28;19945;-94
2022/11/17 08:46:12;;;;;;;;;;;9.40;95.90;;;;;;5047563;28;20041;-94
2022/11/17 08:48:38;;;;;;;;;;;9.50;96.00;;;;;;5045897;28;19948;-94
2022/11/17 08:51:07;;;;;;;;;;;9.60;96.00;;;;;;5034930;28;19966;-94
2022/11/17 08:53:33;;;;;;;;;;;9.60;96.00;;;;;;5049620;28;19989;-95
2022/11/17 08:55:58;;;;;;;;;;;9.60;95.60;;;;;;5036807;28;19942;-96
2022/11/17 08:58:24;;;;;;;;;;;9.80;95.80;;;;;;5041144;28;20437;-96
2022/11/17 09:00:49;;;;;;;;;;;10.00;95.40;;;;;;5053751;28;19992;-94
2022/11/17 09:03:15;;;;;;;;;;;10.00;95.00;;;;;;5049193;28;19941;-94
2022/11/17 09:05:42;;;;;;;;;;;10.00;94.90;;;;;;5046866;28;19952;-93
2022/11/17 09:08:08;;;;;;;;;;;9.90;94.90;;;;;;5049028;28;19950;-95
2022/11/17 09:10:35;;;;;;;;;;;9.90;95.00;;;;;;5053582;28;19943;-95
2022/11/17 09:13:01;;;;;;;;;;;9.90;95.10;;;;;;5053394;28;19974;-94
2022/11/17 09:15:26;;;;;;;;;;;9.90;95.00;;;;;;5044133;28;19955;-94
2022/11/17 09:17:52;;;;;;;;;;;10.00;95.10;;;;;;5047908;28;20340;-94
2022/11/17 09:20:18;;;;;;;;;;;10.00;95.20;;;;;;5053695;28;19942;-95
2022/11/17 09:22:44;;;;;;;;;;;10.00;95.30;;;;;;5053562;28;19939;-94
2022/11/17 09:25:10;;;;;;;;;;;10.10;95.40;;;;;;5056205;28;19938;-94
2022/11/17 09:27:35;;;;;;;;;;;10.20;95.40;;;;;;5058687;28;19945;-95
2022/11/17 09:30:01;;;;;;;;;;;10.30;95.30;;;;;;5055912;28;20056;-94
2022/11/17 09:32:27;;;;;;;;;;;10.40;95.10;;;;;;5053741;28;20419;-95
2022/11/17 09:34:52;;;;;;;;;;;10.40;95.20;;;;;;5054684;28;20033;-95
2022/11/17 09:37:19;;;;;;;;;;;10.40;94.90;;;;;;5053468;28;20053;-95
2022/11/17 09:39:45;;;;;;;;;;;10.50;94.80;;;;;;5053714;28;20002;-94
2022/11/17 09:42:14;;;;;;;;;;;10.60;94.70;;;;;;5053332;28;20479;-95
2022/11/17 09:44:42;;;;;;;;;;;10.70;94.80;;;;;;5053385;28;19949;-95
2022/11/17 09:47:11;;;;;;;;;;;10.80;94.70;;;;;;5055139;28;20025;-96
2022/11/17 09:49:45;;;;;;;;;;;10.90;94.20;;;;;;5054324;28;20404;-95
2022/11/17 09:52:16;;;;;;;;;;;11.00;94.20;;;;;;5054526;28;19983;-96
2022/11/17 09:54:44;;;;;;;;;;;11.10;93.90;;;;;;5053580;28;19938;-95
2022/11/17 09:57:39;;;;;;;;;;;11.30;94.00;;;;;;5056607;28;19972;-96
2022/11/17 10:00:20;;;;;;;;;;;11.50;94.10;;;;;;5019403;28;20442;-96
2022/11/17 10:02:46;;;;;;;;;;;11.80;93.30;;;;;;5059152;28;19938;-96
2022/11/17 10:05:19;;;;;;;;;;;12.00;92.50;;;;;;5057503;28;19992;-95
2022/11/17 10:07:47;;;;;;;;;;;12.10;91.90;;;;;;5057029;28;20339;-96
2022/11/17 10:10:18;;;;;;;;;;;12.20;91.10;;;;;;5058031;28;20003;-95
2022/11/17 10:12:47;;;;;;;;;;;12.20;90.90;;;;;;5054805;28;19983;-95
2022/11/17 10:15:42;;;;;;;;;;;12.30;90.70;;;;;;5055184;28;19947;-96
2022/11/17 10:18:11;;;;;;;;;;;12.40;91.10;;;;;;5047165;28;19966;-95
2022/11/17 10:20:36;;;;;;;;;;;12.60;91.30;;;;;;5059576;28;20375;-96
2022/11/17 10:23:02;;;;;;;;;;;12.80;91.20;;;;;;5053326;28;19945;-96
2022/11/17 10:25:38;;;;;;;;;;;13.00;91.10;;;;;;5049912;28;19945;-96
2022/11/17 10:28:04;;;;;;;;;;;13.30;90.20;;;;;;5052192;28;19995;-96
2022/11/17 10:30:30;;;;;;;;;;;13.50;89.60;;;;;;5053715;28;20046;-96
2022/11/17 10:32:56;;;;;;;;;;;13.80;88.50;;;;;;5052513;28;20448;-95
2022/11/17 10:35:25;;;;;;;;;;;13.90;86.80;;;;;;5052335;28;19955;-94
2022/11/17 10:37:55;;;;;;;;;;;13.70;86.40;;;;;;5044300;28;19954;-94
2022/11/17 10:40:22;;;;;;;;;;;13.60;86.70;;;;;;5039188;28;19943;-95
2022/11/17 10:43:07;;;;;;;;;;;13.80;87.40;;;;;;5045081;28;19989;-94
2022/11/17 10:45:32;;;;;;;;;;;13.90;86.80;;;;;;5045355;28;19950;-94
2022/11/17 10:48:17;;;;;;;;;;;13.90;86.40;;;;;;5041745;28;20739;-94
2022/11/17 10:50:59;;;;;;;;;;;14.00;86.30;;;;;;5043663;28;20015;-94
2022/11/17 10:53:30;;;;;;;;;;;13.90;85.90;;;;;;5048164;28;19948;-94
2022/11/17 10:55:57;;;;;;;;;;;14.10;86.00;;;;;;5042959;28;19957;-94
2022/11/17 10:58:24;;;;;;;;;;;14.40;86.10;;;;;;5042188;28;19966;-94
2022/11/17 11:01:08;;;;;;;;;;;14.40;85.10;;;;;;5052347;28;19962;-94
2022/11/17 11:03:34;;;;;;;;;;;14.30;84.20;;;;;;5045445;28;20461;-95
2022/11/17 11:06:02;;;;;;;;;;;14.10;85.30;;;;;;5044977;28;20035;-94
2022/11/17 11:08:47;;;;;;;;;;;13.90;85.90;;;;;;5043005;28;20064;-95
2022/11/17 11:11:17;;;;;;;;;;;14.10;86.60;;;;;;5043860;28;19945;-95
2022/11/17 11:13:53;;;;;;;;;;;14.30;85.30;;;;;;5043011;28;19955;-94
2022/11/17 11:16:19;;;;;;;;;;;14.30;85.90;;;;;;5051908;28;20432;-94
2022/11/17 11:18:45;;;;;;;;;;;14.10;86.60;;;;;;5043630;28;20035;-93
2022/11/17 11:21:15;;;;;;;;;;;13.90;87.40;;;;;;5046008;28;20497;-94
2022/11/17 11:23:48;;;;;;;;;;;13.60;86.90;;;;;;5053013;28;19941;-93
2022/11/17 11:26:19;;;;;;;;;;;13.60;87.60;;;;;;5041781;28;19941;-95
2022/11/17 11:28:53;;;;;;;;;;;14.00;87.10;;;;;;5048111;28;19936;-94
2022/11/17 11:31:25;;;;;;;;;;;14.40;85.90;;;;;;5041046;28;20398;-94
2022/11/17 11:34:01;;;;;;;;;;;14.60;85.00;;;;;;5047262;28;19941;-94
2022/11/17 11:36:26;;;;;;;;;;;14.60;84.10;;;;;;5038520;28;19949;-94
2022/11/17 11:39:04;;;;;;;;;;;14.60;84.40;;;;;;5041684;28;19940;-94
2022/11/17 11:41:42;;;;;;;;;;;14.70;83.40;;;;;;5044370;28;19956;-94
2022/11/17 11:44:30;;;;;;;;;;;14.70;83.20;;;;;;5035661;28;19991;-94
2022/11/17 11:47:00;;;;;;;;;;;15.20;82.90;;;;;;5041579;28;19967;-95
2022/11/17 11:49:36;;;;;;;;;;;15.70;80.90;;;;;;5041671;28;19977;-94
2022/11/17 11:52:05;;;;;;;;;;;16.00;79.70;;;;;;5036843;28;19976;-95
2022/11/17 11:54:49;;;;;;;;;;;16.50;78.60;;;;;;5032892;28;19942;-95
2022/11/17 11:57:15;;;;;;;;;;;16.70;77.00;;;;;;5033981;28;20398;-94
2022/11/17 11:59:50;;;;;;;;;;;16.60;76.30;;;;;;5033906;28;19982;-94
2022/11/17 12:02:19;;;;;;;;;;;16.90;76.00;;;;;;5033825;28;19938;-95
2022/11/17 12:05:09;;;;;;;;;;;17.10;75.00;;;;;;5034059;28;19968;-94
2022/11/17 12:07:39;;;;;;;;;;;17.00;73.80;;;;;;5033891;28;19968;-93
2022/11/17 12:10:23;;;;;;;;;;;16.30;75.50;;;;;;5034117;28;19944;-94
2022/11/17 12:12:49;;;;;;;;;;;15.90;77.30;;;;;;5033801;28;19941;-94
2022/11/17 12:15:18;;;;;;;;;;;16.00;79.00;;;;;;5033568;28;20445;-94
2022/11/17 12:17:58;;;;;;;;;;;16.80;78.30;;;;;;5034207;28;19986;-94
2022/11/17 12:20:29;;;;;;;;;;;18.00;75.80;;;;;;5033858;28;19952;-95
2022/11/17 12:23:06;;;;;;;;;;;19.40;70.40;;;;;;5041214;28;20397;-95
2022/11/17 12:25:34;;;;;;;;;;;20.90;63.90;;;;;;5032444;28;19944;-95
2022/11/17 12:28:20;;;;;;;;;;;21.90;59.80;;;;;;5045326;28;20468;-95
2022/11/17 12:30:45;;;;;;;;;;;21.90;58.50;;;;;;5044054;28;19943;-94
2022/11/17 12:33:11;;;;;;;;;;;21.80;59.00;;;;;;5049089;28;19954;-94
2022/11/17 12:35:38;;;;;;;;;;;21.30;59.40;;;;;;5052241;28;19971;-94
2022/11/17 12:38:15;;;;;;;;;;;21.30;60.60;;;;;;5048498;28;20028;-94
2022/11/17 12:40:41;;;;;;;;;;;20.90;60.80;;;;;;5050610;28;20053;-94
2022/11/17 12:43:13;;;;;;;;;;;20.70;61.40;;;;;;5042790;28;19942;-94
2022/11/17 12:45:51;;;;;;;;;;;20.80;61.60;;;;;;5049209;28;19946;-94
2022/11/17 12:48:17;;;;;;;;;;;21.10;61.10;;;;;;5053260;28;19949;-94
2022/11/17 12:51:05;;;;;;;;;;;21.20;60.30;;;;;;5052033;28;20062;-95
2022/11/17 12:53:49;;;;;;;;;;;20.70;61.10;;;;;;5020480;28;20397;-94
2022/11/17 12:56:35;;;;;;;;;;;20.40;63.60;;;;;;5045006;28;19943;-94
2022/11/17 12:59:20;;;;;;;;;;;20.50;62.60;;;;;;5047329;28;19969;-94
2022/11/17 13:01:56;;;;;;;;;;;20.50;62.70;;;;;;5046899;28;19946;-94
2022/11/17 13:04:37;;;;;;;;;;;19.90;63.20;;;;;;5043425;28;20374;-94
2022/11/17 13:07:04;;;;;;;;;;;19.20;64.70;;;;;;5039668;28;20005;-94
2022/11/17 13:09:32;;;;;;;;;;;18.40;67.90;;;;;;5050131;28;20462;-95
2022/11/17 13:11:59;;;;;;;;;;;18.00;69.60;;;;;;5045077;28;20073;-94
2022/11/17 13:14:24;;;;;;;;;;;17.80;70.50;;;;;;5043686;28;19948;-94
2022/11/17 13:16:50;;;;;;;;;;;17.50;72.20;;;;;;5036897;28;20049;-94
2022/11/17 13:19:34;;;;;;;;;;;17.50;71.20;;;;;;5043658;28;19938;-94
2022/11/17 13:22:02;;;;;;;;;;;17.40;72.90;;;;;;5045827;28;20042;-94
2022/11/17 13:24:29;;;;;;;;;;;17.70;70.90;;;;;;5042390;28;19942;-94
2022/11/17 13:26:59;;;;;;;;;;;17.70;71.30;;;;;;5041351;28;19942;-94
2022/11/17 13:29:25;;;;;;;;;;;17.80;70.80;;;;;;5043646;28;19951;-95
2022/11/17 13:32:03;;;;;;;;;;;17.90;70.40;;;;;;5043160;28;19940;-95
2022/11/17 13:34:29;;;;;;;;;;;17.80;71.50;;;;;;5046710;28;19945;-95
2022/11/17 13:36:56;;;;;;;;;;;17.90;71.00;;;;;;5042141;28;19960;-95
2022/11/17 13:39:22;;;;;;;;;;;18.10;69.90;;;;;;5051054;28;19995;-94
2022/11/17 13:41:48;;;;;;;;;;;17.80;70.50;;;;;;5040958;28;20002;-95
2022/11/17 13:44:15;;;;;;;;;;;17.40;71.10;;;;;;5044848;28;20000;-94
2022/11/17 13:46:41;;;;;;;;;;;17.20;72.50;;;;;;5049861;28;19966;-94
2022/11/17 13:49:25;;;;;;;;;;;16.90;73.30;;;;;;5039800;28;20338;-94
2022/11/17 13:51:50;;;;;;;;;;;16.80;74.00;;;;;;5043554;28;20063;-94
2022/11/17 13:54:16;;;;;;;;;;;16.70;74.20;;;;;;5043922;28;20372;-94
2022/11/17 13:56:45;;;;;;;;;;;16.50;75.10;;;;;;5051172;28;20375;-94
2022/11/17 13:59:16;;;;;;;;;;;16.20;75.90;;;;;;5054391;28;19984;-94
2022/11/17 14:01:42;;;;;;;;;;;16.10;77.40;;;;;;5053465;28;20037;-94
2022/11/17 14:04:21;;;;;;;;;;;16.40;76.10;;;;;;5051419;28;19994;-94
2022/11/17 14:07:00;;;;;;;;;;;16.80;75.20;;;;;;5050068;28;20388;-94
2022/11/17 14:09:27;;;;;;;;;;;17.60;72.50;;;;;;5042767;28;19949;-95
2022/11/17 14:11:53;;;;;;;;;;;18.00;70.90;;;;;;5047476;28;20524;-95
2022/11/17 14:14:20;;;;;;;;;;;18.10;69.80;;;;;;5047780;28;19979;-94
2022/11/17 14:16:45;;;;;;;;;;;17.80;70.80;;;;;;5051252;28;20017;-94
2022/11/17 14:19:14;;;;;;;;;;;17.40;72.00;;;;;;5052510;28;19953;-94
2022/11/17 14:21:59;;;;;;;;;;;16.90;73.00;;;;;;5049005;28;20461;-94
2022/11/17 14:24:25;;;;;;;;;;;16.80;74.00;;;;;;5045990;28;19968;-94
2022/11/17 14:26:50;;;;;;;;;;;16.80;74.90;;;;;;5046138;28;20392;-94
2022/11/17 14:29:16;;;;;;;;;;;16.80;75.20;;;;;;5049948;28;19971;-94
2022/11/17 14:31:42;;;;;;;;;;;16.60;74.90;;;;;;5046913;28;19955;-94
2022/11/17 14:34:07;;;;;;;;;;;16.40;75.50;;;;;;5054742;28;19944;-94
2022/11/17 14:36:34;;;;;;;;;;;16.50;75.90;;;;;;5043652;28;19976;-95
2022/11/17 14:38:59;;;;;;;;;;;16.70;75.80;;;;;;5043233;28;19948;-94
2022/11/17 14:41:25;;;;;;;;;;;17.00;74.90;;;;;;5049479;28;19938;-94
2022/11/17 14:43:50;;;;;;;;;;;17.10;74.20;;;;;;5049007;28;20346;-94
2022/11/17 14:46:20;;;;;;;;;;;16.90;74.30;;;;;;5051045;28;20404;-94
2022/11/17 14:48:46;;;;;;;;;;;16.70;75.40;;;;;;5049808;28;20480;-94
2022/11/17 14:51:11;;;;;;;;;;;16.30;76.80;;;;;;5049926;28;19970;-94
2022/11/17 14:53:37;;;;;;;;;;;15.80;78.30;;;;;;5053438;28;20390;-93
2022/11/17 14:56:07;;;;;;;;;;;15.40;79.90;;;;;;5051208;28;19977;-94
2022/11/17 14:58:33;;;;;;;;;;;15.20;80.70;;;;;;5054785;28;19968;-93
2022/11/17 15:01:05;;;;;;;;;;;15.00;81.70;;;;;;5047847;28;20033;-93